Flag for Norway

Past Weather in 62°28'09.1"N, 6°09'02.9"E, Norway — Yesterday and Last 2 Weeks

Currently: 52 °F. Broken clouds. (Weather station: Alesund / Vigra, Norway). See more current weather

Past Weather in 62°28'09.1"N, 6°09'02.9"E — Graph

°F

62°28'09.1"N, 6°09'02.9"E Temperature Yesterday

Maximum temperature yesterday: 72 °F (at 11:20 am)
Minimum temperature yesterday: 50 °F (at 4:20 am)
Average temperature yesterday: 61 °F

High & Low Weather Summary for the Past Weeks

 TemperatureHumidityPressure
High73 °F (May 15, 3:20 pm)100% (May 4, 5:50 am)30.27 "Hg (May 4, 5:50 am)
Low32 °F (May 10, 4:50 am)27% (May 15, 4:20 pm)29.74 "Hg (May 5, 5:20 pm)
Average53 °F75%30.03 "Hg
* Reported May 3 6:20 pm — May 18 6:20 pm, 62°28'09.1"N, 6°09'02.9"E. Weather by CustomWeather, © 2024

Note: Actual official high and low records may vary slightly from our data, if they occured in-between our weather recording intervals... More about our weather records

62°28'09.1"N, 6°09'02.9"E Weather History for the Previous 24 Hours

Scroll right to see more
 ConditionsComfort  
Time TempWeatherWind HumidityBarometerVisibility
6:20 pm
Sat, May 18
52 °FLight rain. Broken clouds.6 mph94%29.98 "HgN/A
5:50 pm52 °FLight rain. Broken clouds.7 mph94%29.98 "HgN/A
5:20 pm52 °FLight rain. Broken clouds.10 mph94%29.98 "HgN/A
4:50 pm52 °FLight rain. Broken clouds.12 mph94%29.98 "Hg6 mi
4:20 pm52 °FBroken clouds.15 mph94%29.98 "HgN/A
3:20 pm54 °FScattered clouds.16 mph88%29.98 "HgN/A
2:50 pm55 °FScattered clouds.20 mph82%29.98 "HgN/A
2:20 pm57 °FScattered clouds.23 mph82%29.95 "HgN/A
1:50 pm57 °FScattered clouds.24 mph82%29.95 "HgN/A
1:20 pm57 °FPassing clouds.20 mph82%29.95 "HgN/A
12:50 pm61 °FPassing clouds.14 mph72%29.95 "HgN/A
12:20 pm61 °FScattered clouds.14 mph72%29.95 "HgN/A
11:50 am59 °FSunny.17 mph77%29.95 "Hg10 mi
11:20 am59 °FPassing clouds.13 mph72%29.95 "HgN/A
10:50 am59 °FSunny.16 mph72%29.95 "Hg10 mi
10:20 am57 °FSunny.15 mph77%29.95 "Hg10 mi
9:50 am57 °FSunny.14 mph77%29.95 "Hg10 mi
9:20 am57 °FPassing clouds.13 mph77%29.95 "HgN/A
8:50 am57 °FScattered clouds.14 mph77%29.95 "HgN/A
8:20 am59 °FScattered clouds.9 mph72%29.95 "HgN/A
7:50 am59 °FPartly sunny.8 mph68%29.95 "HgN/A
6:50 am59 °FSunny.8 mph68%29.95 "Hg10 mi
6:20 am59 °FSunny.9 mph68%29.95 "Hg10 mi
5:50 am59 °FSunny.10 mph68%29.95 "Hg10 mi
5:20 am59 °FBroken clouds.10 mph63%29.95 "HgN/A
4:50 am55 °FScattered clouds.7 mph72%29.95 "HgN/A
4:20 am57 °FMostly cloudy.5 mph67%29.95 "HgN/A
3:50 am57 °FPassing clouds.8 mph67%29.95 "HgN/A
3:20 am57 °FMostly cloudy.8 mph67%29.95 "HgN/A
2:50 am57 °FMostly cloudy.7 mph67%29.95 "HgN/A
1:50 am57 °FClear.10 mph63%29.98 "HgN/A
1:20 am59 °FClear.10 mph59%29.98 "HgN/A
12:50 am57 °FPassing clouds.10 mph67%29.98 "HgN/A
12:20 am55 °FClear.9 mph72%30.01 "HgN/A
11:50 pm
Fri, May 17
54 °FClear.9 mph82%30.01 "Hg10 mi
11:20 pm54 °FClear.7 mph82%30.01 "Hg10 mi
10:50 pm55 °FClear.5 mph88%30.01 "Hg10 mi
10:20 pm55 °FSunny.No wind82%30.01 "Hg10 mi
9:50 pm57 °FSunny.3 mph77%30.01 "Hg10 mi
9:20 pm59 °FSunny.No wind72%30.04 "Hg10 mi
8:50 pm61 °FSunny.1 mph68%30.01 "Hg10 mi
8:20 pm63 °FSunny.5 mph64%30.04 "Hg10 mi
7:50 pm63 °FSunny.2 mph59%30.04 "Hg10 mi
7:20 pm66 °FSunny.2 mph46%30.04 "Hg10 mi
Weather by CustomWeather, © 2024

See weather overview